Time;durP1;ratioP1;P1;durP2;ratioP2;P2;SDS_P1;SDS_P2;PMS_P1;PMS_P2;Temp;Humidity;BMP_temperature;BMP_pressure;BME280_temperature;BME280_humidity;BME280_pressure;Samples;Min_cycle;Max_cycle;Signal;HPM_P1;HPM_P2
2021/12/05 00:19:05;;;;;;;13.43;2.90;;;;;;;3.85;77.77;97925.13;5031138;28;20040;-80
2021/12/05 00:24:02;;;;;;;12.05;3.55;;;;;;;3.79;77.99;97938.44;5033327;28;20045;-78
2021/12/05 00:26:30;;;;;;;15.60;5.13;;;;;;;3.80;78.04;97940.16;5036580;28;20029;-80
2021/12/05 00:34:20;;;;;;;9.57;3.78;;;;;;;3.73;78.07;97937.00;5034280;28;20057;-79
2021/12/05 00:49:57;;;;;;;7.80;4.03;;;;;;;3.55;78.59;97938.78;5037406;28;20052;-79
2021/12/05 00:57:45;;;;;;;16.48;4.25;;;;;;;3.52;78.61;97930.28;5043601;28;20567;-79
2021/12/05 01:13:38;;;;;;;15.80;5.15;;;;;;;3.51;78.70;97936.41;5032188;28;20029;-76
2021/12/05 01:16:09;;;;;;;9.57;2.92;;;;;;;3.50;78.75;97935.59;5031233;28;20041;-76
2021/12/05 01:18:35;;;;;;;5.35;2.78;;;;;;;3.51;78.36;97937.25;5032973;28;20045;-78
2021/12/05 01:21:07;;;;;;;12.00;3.80;;;;;;;3.52;78.77;97936.34;5033270;28;20037;-79
2021/12/05 01:23:43;;;;;;;14.05;3.20;;;;;;;3.54;78.65;97942.31;5033247;28;20038;-76
2021/12/05 01:26:14;;;;;;;5.88;2.60;;;;;;;3.55;78.56;97944.00;5031670;28;20537;-76
2021/12/05 01:31:27;;;;;;;10.98;3.72;;;;;;;3.61;78.43;97942.84;5031771;28;20033;-77
2021/12/05 01:36:54;;;;;;;9.52;3.33;;;;;;;3.59;78.26;97932.53;5031038;28;20033;-77
2021/12/05 01:57:46;;;;;;;15.25;3.40;;;;;;;3.62;77.52;97929.75;5037966;28;20029;-77
2021/12/05 02:08:49;;;;;;;11.57;2.63;;;;;;;3.74;77.29;97924.81;5048165;28;20189;-79
2021/12/05 02:40:31;;;;;;;7.18;2.72;;;;;;;3.54;77.48;97905.00;5008521;28;20064;-76
2021/12/05 02:43:06;;;;;;;15.55;3.78;;;;;;;3.54;77.39;97905.00;5009224;28;20030;-76
2021/12/05 02:45:35;;;;;;;9.80;2.35;;;;;;;3.55;77.41;97901.50;5007585;28;20290;-76
2021/12/05 02:48:00;;;;;;;11.43;3.25;;;;;;;3.53;77.33;97896.34;5018141;28;20572;-76
2021/12/05 02:50:29;;;;;;;10.65;2.75;;;;;;;3.54;77.32;97899.78;5024476;28;20030;-76
2021/12/05 02:53:00;;;;;;;4.55;2.20;;;;;;;3.54;77.16;97900.63;5020903;28;20421;-75
2021/12/05 02:55:38;;;;;;;7.22;2.72;;;;;;;3.54;77.32;97900.63;5011667;28;20052;-76
2021/12/05 02:58:15;;;;;;;14.75;3.92;;;;;;;3.53;77.34;97903.31;5012211;28;20841;-76
2021/12/05 03:01:10;;;;;;;7.32;3.15;;;;;;;3.53;77.44;97917.19;5010507;28;20036;-77
2021/12/05 03:03:32;;;;;;;4.35;2.40;;;;;;;3.51;77.34;97903.38;5011649;28;20144;-77
2021/12/05 03:06:07;;;;;;;17.60;2.60;;;;;;;3.49;77.27;97912.19;5010179;28;20406;-77
2021/12/05 03:08:33;;;;;;;11.07;2.97;;;;;;;3.51;77.33;97913.81;5011412;28;20029;-76
2021/12/05 03:11:00;;;;;;;11.07;2.78;;;;;;;3.49;77.32;97918.25;5009623;28;20049;-77
2021/12/05 03:13:26;;;;;;;9.02;3.03;;;;;;;3.53;77.34;97918.97;5010088;28;20064;-77
2021/12/05 03:15:52;;;;;;;8.40;2.28;;;;;;;3.57;77.16;97925.66;4991469;28;20033;-76
2021/12/05 03:18:17;;;;;;;8.25;2.97;;;;;;;3.60;77.02;97923.78;5009427;28;20045;-75
2021/12/05 03:20:43;;;;;;;8.82;2.53;;;;;;;3.64;76.97;97917.50;5027767;28;20640;-78
2021/12/05 03:23:09;;;;;;;7.82;2.88;;;;;;;3.71;76.86;97907.56;5037768;28;20041;-79
2021/12/05 03:25:35;;;;;;;6.40;2.22;;;;;;;3.76;76.78;97915.16;5038370;28;20056;-78
2021/12/05 03:28:02;;;;;;;9.18;2.40;;;;;;;3.76;76.49;97905.56;5039010;28;20045;-79
2021/12/05 03:30:28;;;;;;;9.63;2.70;;;;;;;3.81;76.09;97906.16;5022740;28;20034;-78
2021/12/05 03:32:55;;;;;;;5.25;2.08;;;;;;;3.83;75.51;97901.72;5034496;28;20041;-78
2021/12/05 03:35:25;;;;;;;5.53;2.88;;;;;;;3.84;76.06;97902.59;5033084;28;20029;-77
2021/12/05 03:37:51;;;;;;;7.57;2.58;;;;;;;3.79;75.95;97889.78;5036961;28;20108;-78
2021/12/05 03:40:20;;;;;;;10.32;2.60;;;;;;;3.72;75.64;97892.81;5045103;28;20045;-78
2021/12/05 03:42:47;;;;;;;5.60;1.80;;;;;;;3.71;75.98;97885.88;5037880;28;20038;-78
2021/12/05 03:45:19;;;;;;;4.28;1.90;;;;;;;3.69;75.62;97880.75;5037403;28;20052;-79
2021/12/05 03:47:45;;;;;;;8.73;2.08;;;;;;;3.61;76.19;97875.94;5032753;28;20493;-77
2021/12/05 03:50:11;;;;;;;3.05;1.95;;;;;;;3.60;76.11;97883.84;5033186;28;20072;-77
2021/12/05 03:52:39;;;;;;;11.88;2.08;;;;;;;3.55;76.09;97875.44;5029493;28;20690;-76
2021/12/05 03:55:06;;;;;;;6.90;2.20;;;;;;;3.52;75.94;97875.56;5032956;28;20041;-77
2021/12/05 03:57:32;;;;;;;5.55;2.00;;;;;;;3.50;76.04;97875.66;5031523;28;20082;-77
2021/12/05 03:59:58;;;;;;;5.40;2.45;;;;;;;3.49;75.99;97878.34;5036796;28;20442;-79
2021/12/05 04:02:23;;;;;;;7.32;2.13;;;;;;;3.45;75.98;97885.47;5033902;28;20044;-78
2021/12/05 04:04:50;;;;;;;4.07;1.80;;;;;;;3.42;76.13;97885.63;5037527;28;20033;-79
2021/12/05 04:07:16;;;;;;;4.00;2.45;;;;;;;3.40;75.87;97888.31;5042833;28;20024;-78
2021/12/05 04:09:42;;;;;;;4.78;1.90;;;;;;;3.39;76.22;97881.41;5036329;28;20045;-78
2021/12/05 04:12:09;;;;;;;6.53;2.40;;;;;;;3.39;75.88;97884.00;5038965;28;20048;-78
2021/12/05 04:14:42;;;;;;;3.85;2.28;;;;;;;3.41;76.15;97887.38;5031432;28;20039;-78
2021/12/05 04:17:10;;;;;;;9.02;3.00;;;;;;;3.41;75.61;97881.34;5032707;28;20393;-78
2021/12/05 04:19:37;;;;;;;9.48;2.55;;;;;;;3.46;75.86;97881.94;5031257;28;20034;-78
2021/12/05 04:22:06;;;;;;;4.53;2.47;;;;;;;3.47;75.73;97890.59;5030383;28;20053;-78
2021/12/05 04:24:32;;;;;;;5.65;2.53;;;;;;;3.49;75.56;97891.38;5031226;28;20033;-78
2021/12/05 04:27:29;;;;;;;8.13;3.42;;;;;;;3.50;75.51;97896.50;5000564;28;20061;-76
2021/12/05 04:30:07;;;;;;;4.18;2.03;;;;;;;3.55;75.34;97893.66;4978549;28;20227;-78
2021/12/05 04:32:56;;;;;;;11.48;2.38;;;;;;;3.57;75.25;97892.66;4993135;28;20032;-77
2021/12/05 04:36:09;;;;;;;7.30;2.67;;;;;;;3.68;74.89;97891.28;4995235;28;20034;-77
2021/12/05 04:39:09;;;;;;;3.67;1.60;;;;;;;3.72;74.87;97888.44;4980300;28;20089;-77
2021/12/05 04:41:55;;;;;;;5.85;1.90;;;;;;;3.72;74.89;97879.78;5001303;28;20041;-77
2021/12/05 04:44:22;;;;;;;6.40;2.10;;;;;;;3.75;74.64;97880.44;5011761;28;20030;-77
2021/12/05 04:46:48;;;;;;;6.30;2.05;;;;;;;3.73;74.63;97877.06;5028194;28;20033;-78
2021/12/05 04:49:14;;;;;;;8.48;2.72;;;;;;;3.80;74.53;97877.59;5013107;28;20037;-76
2021/12/05 04:51:42;;;;;;;5.05;1.77;;;;;;;3.82;74.38;97887.03;5027666;28;20029;-76
2021/12/05 04:54:10;;;;;;;6.38;2.22;;;;;;;3.80;73.86;97875.84;5027385;28;20048;-76
2021/12/05 04:56:36;;;;;;;3.97;1.85;;;;;;;3.84;74.20;97877.38;5028173;28;20033;-78
2021/12/05 04:59:11;;;;;;;6.45;1.85;;;;;;;3.78;73.72;97872.47;5029504;28;20030;-75
2021/12/05 05:01:36;;;;;;;6.63;2.35;;;;;;;3.75;73.70;97870.03;5028854;28;20041;-77
2021/12/05 05:04:06;;;;;;;7.40;2.17;;;;;;;3.74;73.28;97872.69;5030231;28;20420;-74
2021/12/05 05:06:31;;;;;;;4.47;1.60;;;;;;;3.74;73.89;97867.47;5027774;28;20049;-75
2021/12/05 05:08:57;;;;;;;5.38;2.08;;;;;;;3.69;74.01;97867.72;5029392;28;20053;-76
2021/12/05 05:11:25;;;;;;;4.88;1.60;;;;;;;3.63;73.65;97857.63;5032135;28;20033;-76
2021/12/05 05:13:51;;;;;;;7.35;2.40;;;;;;;3.64;73.60;97854.09;5030558;28;20048;-76
2021/12/05 05:16:20;;;;;;;6.10;1.98;;;;;;;3.57;73.69;97861.41;5030021;28;20068;-74
2021/12/05 05:18:52;;;;;;;5.25;2.35;;;;;;;3.54;74.11;97861.53;5031926;28;20037;-76
2021/12/05 05:50:36;;;;;;;6.07;2.20;;;;;;;3.46;73.14;97883.72;5032217;28;20033;-78
2021/12/05 05:53:02;;;;;;;6.55;1.88;;;;;;;3.45;73.05;97882.88;5031757;28;20057;-77
2021/12/05 05:55:27;;;;;;;6.47;2.75;;;;;;;3.43;72.39;97884.72;5016626;28;20069;-76
2021/12/05 06:00:35;;;;;;;5.85;1.88;;;;;;;3.42;72.26;97876.06;5011811;28;20486;-75
2021/12/05 06:06:07;;;;;;;4.55;1.77;;;;;;;3.42;71.92;97877.81;4989531;28;20052;-77
2021/12/05 06:08:35;;;;;;;4.47;2.03;;;;;;;3.43;71.99;97879.50;5008037;28;20555;-77
2021/12/05 06:11:04;;;;;;;8.43;2.05;;;;;;;3.42;71.74;97868.25;5014968;28;20406;-76
2021/12/05 06:13:30;;;;;;;7.20;1.77;;;;;;;3.44;71.42;97870.75;4997735;28;20128;-75
2021/12/05 06:15:56;;;;;;;4.40;1.85;;;;;;;3.46;71.39;97875.91;5014429;28;20060;-77
2021/12/05 06:18:23;;;;;;;6.60;1.95;;;;;;;3.47;71.56;97878.44;5012208;28;20055;-77
2021/12/05 06:20:50;;;;;;;4.40;1.70;;;;;;;3.49;71.36;97879.19;5010967;28;20521;-77
2021/12/05 06:23:15;;;;;;;6.63;1.67;;;;;;;3.53;71.76;97879.88;5009681;28;20046;-76
2021/12/05 06:25:44;;;;;;;3.03;1.88;;;;;;;3.51;71.75;97885.16;5009964;28;20493;-76
2021/12/05 06:28:12;;;;;;;2.58;1.60;;;;;;;3.52;71.98;97886.84;5011436;28;20037;-76
2021/12/05 06:30:50;;;;;;;3.13;1.65;;;;;;;3.53;72.38;97879.88;5028140;28;20057;-75
2021/12/05 06:46:38;;;;;;;4.22;2.25;;;;;;;3.72;72.04;97882.38;5029695;28;20037;-76
2021/12/05 06:49:04;;;;;;;6.18;3.63;;;;;;;3.70;72.16;97889.44;5030800;28;20049;-76
2021/12/05 06:51:30;;;;;;;4.53;1.80;;;;;;;3.74;72.47;97880.50;5031004;28;20033;-76
2021/12/05 06:53:58;;;;;;;3.67;2.40;;;;;;;3.78;72.52;97887.25;5032380;28;20504;-76
2021/12/05 06:56:24;;;;;;;9.48;2.78;;;;;;;3.75;72.39;97888.25;5029535;28;20056;-76
2021/12/05 06:58:50;;;;;;;3.05;1.67;;;;;;;3.74;72.24;97885.72;5029156;28;20045;-76
2021/12/05 07:01:16;;;;;;;4.40;2.00;;;;;;;3.81;71.94;97889.69;5029167;28;20045;-77
2021/12/05 07:03:45;;;;;;;4.15;1.77;;;;;;;3.81;72.10;97892.31;5030165;28;20041;-75
2021/12/05 07:06:19;;;;;;;4.43;2.40;;;;;;;3.78;72.02;97884.66;5030239;28;20041;-75
2021/12/05 07:08:45;;;;;;;4.18;2.00;;;;;;;3.81;72.41;97894.91;5030695;28;20033;-76
2021/12/05 07:11:19;;;;;;;2.33;1.77;;;;;;;3.79;72.08;97905.44;5030168;28;20068;-76
2021/12/05 07:21:48;;;;;;;5.97;2.78;;;;;;;3.81;72.31;97914.00;5029543;28;20049;-77
2021/12/05 07:40:26;;;;;;;2.88;1.85;;;;;;;3.95;71.98;97941.13;5029136;28;20041;-76
2021/12/05 07:43:00;;;;;;;6.00;2.10;;;;;;;3.98;72.21;97940.97;5030745;28;20037;-75
2021/12/05 07:45:35;;;;;;;3.28;2.20;;;;;;;3.97;72.04;97945.34;5029827;28;20071;-76
2021/12/05 07:48:10;;;;;;;5.38;2.50;;;;;;;4.03;71.93;97944.16;5033900;28;20067;-75
2021/12/05 07:50:43;;;;;;;2.55;1.63;;;;;;;4.10;71.92;97950.75;5034799;28;20034;-77
2021/12/05 07:53:17;;;;;;;6.20;2.50;;;;;;;4.07;71.88;97953.53;5022620;28;20037;-76
2021/12/05 07:55:45;;;;;;;4.13;2.00;;;;;;;4.00;72.07;97950.38;5014360;28;20068;-76
2021/12/05 08:16:49;;;;;;;10.13;2.92;;;;;;;4.17;71.82;97977.34;5009226;28;20037;-76
2021/12/05 08:19:15;;;;;;;9.77;4.55;;;;;;;4.18;71.58;97979.84;5010834;28;20072;-78
2021/12/05 08:21:40;;;;;;;4.82;2.05;;;;;;;4.23;71.70;97977.00;5016172;28;20028;-78
2021/12/05 08:24:06;;;;;;;3.45;2.22;;;;;;;4.26;71.10;97974.28;5011005;28;20037;-75
2021/12/05 08:26:33;;;;;;;6.15;1.92;;;;;;;4.26;71.76;97976.88;5007982;28;20040;-77
2021/12/05 08:31:55;;;;;;;4.05;2.38;;;;;;;4.34;71.20;97976.47;5007651;28;20034;-77
2021/12/05 08:34:45;;;;;;;4.68;2.22;;;;;;;4.40;71.55;97990.00;5011681;28;20408;-76
2021/12/05 09:24:32;;;;;;;6.53;1.98;;;;;;;4.78;69.48;98018.44;5035451;28;20042;-76
2021/12/05 10:26:25;;;;;;;3.67;1.92;;;;;;;5.84;66.21;98059.56;5050157;28;20055;-70
2021/12/05 10:37:06;;;;;;;4.13;2.42;;;;;;;5.89;65.91;98075.00;5024677;28;20037;-74
2021/12/05 10:39:31;;;;;;;;;;;;;;;5.95;66.11;98072.03;5025789;28;20037;-74
2021/12/05 10:42:13;;;;;;;4.03;2.17;;;;;;;6.01;66.18;98076.94;5024598;28;19986;-74
2021/12/05 10:44:45;;;;;;;11.15;5.05;;;;;;;6.15;65.73;98069.13;5023550;28;20084;-74
2021/12/05 10:47:12;;;;;;;7.10;2.95;;;;;;;6.20;65.51;98081.91;5100634;22;20053;-77
2021/12/05 10:49:38;;;;;;;6.85;3.30;;;;;;;6.21;65.60;98076.59;5004918;28;20521;-76
2021/12/05 10:52:04;;;;;;;9.05;3.95;;;;;;;6.22;65.46;98077.44;5005559;28;20100;-76
2021/12/05 10:54:30;;;;;;;7.30;2.80;;;;;;;6.15;65.23;98083.94;5005491;28;20751;-76
2021/12/05 10:57:00;;;;;;;4.18;1.88;;;;;;;6.15;65.53;98079.59;5004271;28;20445;-76
2021/12/05 10:59:39;;;;;;;3.65;2.20;;;;;;;6.11;65.88;98080.69;5005183;28;20048;-77
2021/12/05 11:02:13;;;;;;;3.40;2.00;;;;;;;6.08;65.52;98090.47;5006669;28;20602;-78
2021/12/05 11:04:44;;;;;;;3.17;2.05;;;;;;;6.07;65.89;98087.00;5007021;28;20060;-78
2021/12/05 11:07:12;;;;;;;5.15;1.98;;;;;;;6.04;65.68;98091.59;5000933;28;20030;-77
2021/12/05 11:09:46;;;;;;;1.92;1.50;;;;;;;5.96;65.27;98094.66;5003911;28;20126;-75
2021/12/05 11:12:23;;;;;;;4.97;1.80;;;;;;;6.00;65.93;98090.91;5003230;28;20053;-76
2021/12/05 11:14:52;;;;;;;8.98;2.33;;;;;;;6.06;65.62;98093.19;5002969;28;20064;-78
2021/12/05 11:17:23;;;;;;;2.00;1.20;;;;;;;6.09;65.29;98093.00;5003351;28;20500;-77
2021/12/05 11:19:57;;;;;;;4.30;1.58;;;;;;;6.14;64.87;98101.44;5006193;28;20054;-77
2021/12/05 11:22:42;;;;;;;4.20;1.45;;;;;;;6.04;65.75;98096.81;5005585;28;20386;-76
2021/12/05 11:25:10;;;;;;;5.50;1.38;;;;;;;6.06;65.60;98098.41;5003282;28;20049;-77
2021/12/05 11:27:51;;;;;;;4.70;1.30;;;;;;;6.07;65.69;98099.25;5001331;28;20045;-77
2021/12/05 11:30:21;;;;;;;1.55;1.05;;;;;;;6.07;65.02;98102.72;4990162;28;20038;-78
2021/12/05 11:33:19;;;;;;;3.30;1.80;;;;;;;6.05;65.87;98112.41;5005385;28;20034;-78
2021/12/05 11:35:50;;;;;;;1.67;1.45;;;;;;;6.10;65.76;98102.53;4997123;28;20030;-77
2021/12/05 11:38:24;;;;;;;3.88;2.55;;;;;;;5.95;66.29;98108.66;5006095;28;20053;-77
2021/12/05 11:41:08;;;;;;;1.52;1.20;;;;;;;5.95;66.02;98109.47;5007968;28;20025;-78
2021/12/05 11:43:36;;;;;;;2.72;1.50;;;;;;;6.01;66.17;98108.31;5004884;28;20049;-77
2021/12/05 11:46:14;;;;;;;2.90;1.92;;;;;;;6.06;66.29;98114.13;5005073;28;20647;-77
2021/12/05 11:48:43;;;;;;;3.97;1.90;;;;;;;6.07;66.32;98115.78;4999488;28;20041;-78
2021/12/05 11:51:29;;;;;;;2.70;1.63;;;;;;;5.98;66.02;98117.19;5005910;28;20088;-79
2021/12/05 11:54:03;;;;;;;2.38;1.30;;;;;;;5.86;67.00;98117.84;5004440;28;20029;-79
2021/12/05 11:56:31;;;;;;;2.40;1.75;;;;;;;5.76;67.89;98112.28;5002238;28;20037;-77
2021/12/05 11:59:05;;;;;;;12.27;4.18;;;;;;;5.73;68.61;98114.22;5000147;28;20033;-78
2021/12/05 12:01:44;;;;;;;3.15;2.40;;;;;;;5.71;69.31;98110.84;5003795;28;20041;-77
2021/12/05 12:04:12;;;;;;;2.45;1.95;;;;;;;5.72;68.94;98113.38;5009782;28;20038;-76
2021/12/05 12:06:38;;;;;;;3.85;1.88;;;;;;;5.79;69.52;98119.13;5011958;28;20061;-77
2021/12/05 12:09:05;;;;;;;3.50;1.67;;;;;;;5.79;69.49;98124.34;5006743;28;20388;-78
2021/12/05 12:11:31;;;;;;;2.03;1.33;;;;;;;5.79;70.00;98119.13;5002926;28;20030;-77
2021/12/05 12:13:56;;;;;;;3.53;1.42;;;;;;;5.81;70.39;98119.88;5003285;28;20038;-77
2021/12/05 12:16:22;;;;;;;2.03;1.35;;;;;;;5.80;70.26;98119.00;5002405;28;20033;-78
2021/12/05 12:18:49;;;;;;;2.72;1.73;;;;;;;5.78;70.77;98112.19;5005651;28;20038;-79
2021/12/05 12:21:20;;;;;;;7.93;2.63;;;;;;;5.78;70.14;98120.91;5007523;28;20026;-78
2021/12/05 12:23:48;;;;;;;2.55;1.85;;;;;;;5.79;70.33;98119.13;5007509;28;20050;-78
2021/12/05 12:26:14;;;;;;;2.92;1.90;;;;;;;5.86;70.69;98117.84;5006884;28;20089;-78
2021/12/05 12:28:40;;;;;;;2.78;1.60;;;;;;;5.85;69.72;98118.75;5006570;28;20084;-77
2021/12/05 12:31:18;;;;;;;5.75;1.70;;;;;;;5.83;70.87;98118.00;5009219;28;20136;-77
2021/12/05 12:33:53;;;;;;;3.88;2.10;;;;;;;5.80;70.89;98123.41;5009338;28;20082;-77
2021/12/05 12:36:43;;;;;;;24.58;15.10;;;;;;;5.84;70.53;98131.94;5000723;28;20133;-76
2021/12/05 12:39:20;;;;;;;5.57;2.47;;;;;;;5.82;71.22;98135.47;4999667;28;20049;-78
2021/12/05 12:42:16;;;;;;;3.95;2.33;;;;;;;5.83;70.46;98136.31;5005551;28;20180;-77
2021/12/05 12:44:59;;;;;;;4.13;2.00;;;;;;;5.82;70.50;98145.94;5007932;28;20505;-80
2021/12/05 12:47:40;;;;;;;5.20;2.83;;;;;;;5.83;70.57;98146.75;4993472;28;20132;-79
2021/12/05 12:50:51;;;;;;;2.97;1.50;;;;;;;5.80;69.47;98145.16;5013093;28;20042;-80
2021/12/05 12:53:27;;;;;;;1.88;1.50;;;;;;;5.73;70.06;98149.06;5008812;28;20493;-79
2021/12/05 12:56:21;;;;;;;1.42;1.10;;;;;;;5.66;70.23;98154.72;5011472;28;20034;-79
2021/12/05 12:58:55;;;;;;;1.42;1.27;;;;;;;5.54;70.24;98153.63;5011533;28;20315;-78
2021/12/05 13:10:01;;;;;;;1.95;1.50;;;;;;;5.58;70.11;98168.22;5009013;28;20104;-78
2021/12/05 13:12:49;;;;;;;1.80;1.30;;;;;;;5.51;70.16;98172.09;5006292;28;20041;-77
2021/12/05 13:15:41;;;;;;;1.90;1.35;;;;;;;5.50;70.71;98180.84;5007453;28;20037;-76
2021/12/05 13:18:10;;;;;;;2.70;1.88;;;;;;;5.48;71.03;98183.53;5008153;28;20227;-78
2021/12/05 13:20:41;;;;;;;2.88;1.80;;;;;;;5.46;70.77;98179.34;5009500;28;20184;-79
2021/12/05 13:23:13;;;;;;;4.63;2.33;;;;;;;5.51;71.36;98179.91;5009139;28;20043;-77
2021/12/05 13:25:59;;;;;;;3.22;1.80;;;;;;;5.51;71.02;98183.41;5006953;28;20119;-76
2021/12/05 13:28:30;;;;;;;2.88;1.83;;;;;;;5.54;71.13;98178.00;5009348;28;20488;-78
2021/12/05 13:30:56;;;;;;;4.15;2.40;;;;;;;5.54;71.48;98182.41;5009485;28;20038;-79
2021/12/05 13:33:25;;;;;;;2.90;2.20;;;;;;;5.52;71.71;98179.84;5011737;28;20041;-79
2021/12/05 13:35:58;;;;;;;4.60;1.50;;;;;;;5.54;72.10;98185.84;5006428;28;20056;-77
2021/12/05 13:38:40;;;;;;;1.60;1.33;;;;;;;5.46;71.43;98195.00;5008045;28;20498;-78
2021/12/05 13:41:19;;;;;;;1.60;1.35;;;;;;;5.35;71.27;98196.44;5009613;28;20038;-76
2021/12/05 13:44:13;;;;;;;4.57;3.08;;;;;;;5.32;71.17;98199.22;5007384;28;20473;-77
2021/12/05 13:46:39;;;;;;;1.30;1.20;;;;;;;5.31;70.83;98212.34;5001493;28;20034;-76
2021/12/05 13:49:36;;;;;;;2.20;1.38;;;;;;;5.28;71.14;98213.38;5007501;28;20761;-77
2021/12/05 13:52:49;;;;;;;2.72;1.95;;;;;;;5.24;71.62;98219.69;5001252;28;20037;-78
2021/12/05 13:55:42;;;;;;;2.97;1.83;;;;;;;5.21;71.43;98226.84;4995283;28;20533;-77
2021/12/05 13:58:32;;;;;;;4.85;3.28;;;;;;;5.14;71.86;98231.53;4994585;28;20087;-78
2021/12/05 14:01:18;;;;;;;3.38;2.28;;;;;;;5.11;72.68;98231.69;4985360;28;20042;-77
2021/12/05 14:03:59;;;;;;;7.93;3.50;;;;;;;5.15;72.36;98241.06;5006362;28;20991;-76
2021/12/05 14:06:39;;;;;;;5.50;2.90;;;;;;;5.12;73.37;98246.47;5003677;28;20040;-76
2021/12/05 14:09:33;;;;;;;3.20;2.00;;;;;;;5.07;73.53;98245.81;5013400;28;20045;-76
2021/12/05 14:12:07;;;;;;;6.03;2.13;;;;;;;5.01;73.82;98246.16;5009995;28;20045;-76
2021/12/05 14:14:48;;;;;;;3.92;2.00;;;;;;;4.99;73.39;98251.44;5010457;28;20053;-76
2021/12/05 14:17:23;;;;;;;5.25;2.78;;;;;;;4.98;73.37;98252.38;5009257;28;20068;-77
2021/12/05 14:19:51;;;;;;;5.53;2.80;;;;;;;4.93;73.99;98250.00;5007507;28;20430;-76
2021/12/05 14:22:21;;;;;;;7.35;4.35;;;;;;;4.99;74.21;98261.88;5005519;28;20111;-78
2021/12/05 14:24:50;;;;;;;7.03;5.00;;;;;;;5.07;74.47;98261.50;5003874;28;20119;-76
2021/12/05 14:27:20;;;;;;;8.32;5.25;;;;;;;5.05;74.03;98269.44;5005189;28;20041;-76
2021/12/05 14:29:48;;;;;;;8.20;4.15;;;;;;;5.00;73.90;98273.22;5003831;28;20041;-75
2021/12/05 14:32:21;;;;;;;5.30;3.50;;;;;;;4.94;73.69;98271.72;5003684;28;20029;-76
2021/12/05 14:34:47;;;;;;;7.00;4.85;;;;;;;5.02;74.04;98276.56;5003205;28;20053;-74
2021/12/05 14:37:19;;;;;;;5.63;3.15;;;;;;;5.09;74.06;98283.16;5004129;28;20089;-76
2021/12/05 14:39:48;;;;;;;7.80;4.78;;;;;;;5.15;73.11;98285.47;5003960;28;20042;-78
2021/12/05 14:42:19;;;;;;;6.35;3.85;;;;;;;5.14;72.98;98289.00;5006153;28;20521;-77
2021/12/05 14:44:49;;;;;;;3.80;1.75;;;;;;;5.12;72.98;98296.94;4998973;28;20073;-75
2021/12/05 14:47:18;;;;;;;3.97;1.92;;;;;;;5.15;72.54;98295.94;5003807;28;20053;-75
2021/12/05 14:49:51;;;;;;;2.63;1.63;;;;;;;5.20;72.63;98298.31;5003761;28;20045;-75
2021/12/05 14:52:23;;;;;;;2.33;2.03;;;;;;;5.21;73.27;98299.97;4970554;28;20035;-76
2021/12/05 14:54:49;;;;;;;3.08;1.73;;;;;;;5.16;72.78;98303.66;4997606;28;20045;-76
2021/12/05 14:57:19;;;;;;;5.05;2.53;;;;;;;5.07;73.60;98308.50;5004783;28;20030;-80
2021/12/05 14:59:50;;;;;;;2.80;2.00;;;;;;;5.00;73.52;98310.59;4982318;28;20042;-77
2021/12/05 15:02:18;;;;;;;3.38;1.95;;;;;;;5.08;73.17;98316.28;4983457;28;20119;-77
2021/12/05 15:04:50;;;;;;;3.75;2.22;;;;;;;5.11;73.92;98312.66;5017617;28;20034;-78
2021/12/05 15:07:20;;;;;;;2.75;1.95;;;;;;;5.08;73.28;98320.66;5002502;28;20096;-70
2021/12/05 15:09:49;;;;;;;2.80;2.00;;;;;;;5.08;73.60;98316.28;4992579;28;20692;-71
2021/12/05 15:12:24;;;;;;;5.97;2.28;;;;;;;5.06;73.44;98328.56;5004176;28;20061;-69
2021/12/05 15:14:53;;;;;;;3.90;2.72;;;;;;;4.93;73.29;98330.13;5002491;28;20084;-72
2021/12/05 15:17:22;;;;;;;4.25;2.70;;;;;;;4.91;74.23;98326.72;5002884;28;20445;-75
2021/12/05 15:19:54;;;;;;;5.10;2.17;;;;;;;4.92;73.86;98336.25;5005975;28;20038;-71
2021/12/05 15:22:20;;;;;;;2.80;1.80;;;;;;;4.91;74.24;98338.00;5003694;28;20140;-71
2021/12/05 15:25:00;;;;;;;4.05;2.13;;;;;;;4.89;73.27;98342.47;5004768;28;20125;-72
2021/12/05 15:27:30;;;;;;;2.80;1.70;;;;;;;4.90;73.83;98349.41;5004690;28;20036;-71
2021/12/05 15:30:03;;;;;;;4.50;2.35;;;;;;;4.90;73.03;98357.22;5003023;28;20034;-71
2021/12/05 15:32:30;;;;;;;4.50;1.90;;;;;;;4.94;73.56;98356.13;5005178;28;20189;-62
2021/12/05 15:35:03;;;;;;;3.65;2.40;;;;;;;5.08;73.06;98362.47;5002867;28;20091;-62
2021/12/05 15:37:29;;;;;;;3.70;2.25;;;;;;;5.37;72.07;98363.59;5003906;28;20037;-76
2021/12/05 15:39:57;;;;;;;2.25;1.77;;;;;;;5.36;71.40;98364.50;5003789;28;20045;-75
2021/12/05 15:42:30;;;;;;;2.55;1.80;;;;;;;5.26;72.29;98374.59;4984104;28;20049;-77
2021/12/05 15:44:57;;;;;;;4.78;2.13;;;;;;;5.18;72.49;98371.53;4999950;28;20037;-76
2021/12/05 15:47:26;;;;;;;2.88;1.60;;;;;;;5.08;72.88;98378.97;5001085;28;20048;-77
2021/12/05 15:50:13;;;;;;;3.97;1.90;;;;;;;5.00;72.71;98383.72;4990052;28;20065;-78
2021/12/05 15:52:48;;;;;;;1.88;1.73;;;;;;;5.02;72.94;98386.25;5006119;28;20092;-78
2021/12/05 15:55:22;;;;;;;2.25;1.50;;;;;;;4.98;73.47;98388.19;5004191;28;20065;-77
2021/12/05 15:57:53;;;;;;;2.00;1.40;;;;;;;4.91;73.57;98381.56;5005166;28;20037;-77
2021/12/05 16:00:23;;;;;;;2.50;1.80;;;;;;;4.88;73.96;98392.16;5014046;28;20064;-75
2021/12/05 16:02:57;;;;;;;4.15;2.10;;;;;;;4.89;73.49;98394.69;4989161;28;20114;-77
2021/12/05 16:05:25;;;;;;;3.25;2.50;;;;;;;4.85;73.98;98401.00;5008638;28;20477;-78
2021/12/05 16:07:51;;;;;;;4.97;2.92;;;;;;;4.84;74.48;98403.66;5006239;28;20037;-76
2021/12/05 16:10:21;;;;;;;3.47;2.35;;;;;;;4.80;74.20;98408.22;5005545;28;20042;-77
2021/12/05 16:12:48;;;;;;;6.65;3.88;;;;;;;4.82;74.76;98408.13;5004663;28;20622;-78
2021/12/05 16:15:24;;;;;;;4.78;2.97;;;;;;;4.74;74.84;98411.09;5004518;28;20108;-79
2021/12/05 16:17:54;;;;;;;;;;;;;;;4.70;75.46;98420.84;5006699;28;20037;-77
2021/12/05 16:20:26;;;;;;;3.83;2.55;;;;;;;4.68;75.66;98432.28;5006455;28;19917;-78
2021/12/05 16:23:18;;;;;;;4.35;2.58;;;;;;;4.65;75.59;98429.78;5007072;28;20116;-78
2021/12/05 16:26:00;;;;;;;2.95;2.05;;;;;;;4.65;75.62;98438.50;4998071;28;20052;-77
2021/12/05 16:28:47;;;;;;;4.78;3.25;;;;;;;4.73;74.93;98440.75;5006769;28;20406;-77
2021/12/05 16:31:19;;;;;;;3.10;2.17;;;;;;;4.72;75.15;98452.94;5004691;28;20049;-76
2021/12/05 16:33:55;;;;;;;4.68;2.70;;;;;;;4.65;75.70;98453.28;5002018;28;20062;-79
2021/12/05 16:36:21;;;;;;;4.90;2.60;;;;;;;4.64;75.77;98462.88;4996283;28;20050;-77
2021/12/05 16:38:51;;;;;;;7.90;3.30;;;;;;;4.63;75.96;98465.59;5009608;28;20380;-79
2021/12/05 16:41:16;;;;;;;4.13;2.90;;;;;;;4.56;76.25;98472.00;5001377;28;20117;-76
2021/12/05 16:43:57;;;;;;;7.00;4.60;;;;;;;4.55;77.02;98471.13;5003389;28;20113;-78
2021/12/05 16:46:28;;;;;;;5.93;3.97;;;;;;;4.57;76.36;98473.69;5001933;28;20121;-76
2021/12/05 16:48:56;;;;;;;29.90;17.05;;;;;;;4.51;77.06;98480.88;5005341;28;20042;-77
2021/12/05 16:51:36;;;;;;;7.68;5.93;;;;;;;4.47;76.66;98491.53;5007547;28;20040;-77
2021/12/05 16:54:24;;;;;;;5.63;4.07;;;;;;;4.45;77.28;98491.59;5001427;28;20133;-78
2021/12/05 16:56:59;;;;;;;4.88;3.40;;;;;;;4.43;77.41;98485.63;5001882;28;20100;-76
2021/12/05 16:59:29;;;;;;;8.68;4.93;;;;;;;4.46;77.69;98488.06;4990219;28;20092;-78
2021/12/05 17:02:21;;;;;;;9.55;4.80;;;;;;;4.49;77.40;98494.91;4987590;28;20587;-76
2021/12/05 17:04:59;;;;;;;13.02;7.00;;;;;;;4.52;77.11;98494.78;4989536;28;20458;-76
2021/12/05 17:08:12;;;;;;;11.40;6.07;;;;;;;4.50;77.44;98500.06;4984206;28;20048;-76
2021/12/05 17:10:59;;;;;;;9.60;5.75;;;;;;;4.39;77.66;98502.31;4990604;28;20056;-77
2021/12/05 17:13:31;;;;;;;11.57;7.88;;;;;;;4.40;78.32;98505.75;5008937;28;20182;-77
2021/12/05 17:16:09;;;;;;;8.65;5.43;;;;;;;4.30;78.53;98514.00;4993508;28;20050;-78
2021/12/05 17:18:53;;;;;;;7.13;4.53;;;;;;;4.29;78.88;98521.91;5009511;28;20042;-77
2021/12/05 17:21:27;;;;;;;8.35;5.22;;;;;;;4.27;78.26;98516.75;5010424;28;20038;-79
2021/12/05 17:23:56;;;;;;;5.55;3.80;;;;;;;4.28;78.89;98526.28;5017429;28;20037;-80
2021/12/05 17:26:31;;;;;;;6.47;4.55;;;;;;;4.33;78.21;98533.03;5018264;28;20029;-80
2021/12/05 17:29:02;;;;;;;11.32;6.40;;;;;;;4.36;78.18;98525.94;5015843;28;20056;-76
2021/12/05 17:31:31;;;;;;;10.45;5.57;;;;;;;4.36;78.12;98530.31;5017693;28;20097;-77
2021/12/05 17:34:01;;;;;;;6.57;5.03;;;;;;;4.33;78.50;98533.88;5004879;28;20094;-78
2021/12/05 17:36:36;;;;;;;6.53;4.68;;;;;;;4.31;78.48;98535.72;4999569;28;20038;-77
2021/12/05 17:39:19;;;;;;;5.75;4.70;;;;;;;4.35;77.62;98537.28;5001290;28;20046;-77
2021/12/05 17:41:48;;;;;;;8.27;4.40;;;;;;;4.29;78.14;98543.63;5016730;28;20045;-76
2021/12/05 17:44:16;;;;;;;5.05;3.45;;;;;;;4.32;78.05;98553.06;5020138;28;20042;-77